Time;durP1;ratioP1;P1;durP2;ratioP2;P2;SDS_P1;SDS_P2;PMS_P1;PMS_P2;Temp;Humidity;BMP_temperature;BMP_pressure;BME280_temperature;BME280_humidity;BME280_pressure;Samples;Min_cycle;Max_cycle;Signal;HPM_P1;HPM_P2
2022/01/21 00:00:31;;;;;;;15.20;4.40;;;24.50;62.40;;;;;;5016805;28;20030;-79
2022/01/21 00:02:57;;;;;;;11.32;4.00;;;24.50;62.50;;;;;;4996053;28;20321;-77
2022/01/21 00:05:24;;;;;;;16.75;4.88;;;24.50;62.50;;;;;;5002914;28;20469;-83
2022/01/21 00:07:51;;;;;;;18.95;5.93;;;24.50;62.50;;;;;;4998463;28;20022;-79
2022/01/21 00:10:17;;;;;;;13.63;4.35;;;24.50;62.50;;;;;;5001257;28;20039;-77
2022/01/21 00:12:46;;;;;;;17.08;5.47;;;24.50;62.60;;;;;;4999337;28;20019;-79
2022/01/21 00:15:13;;;;;;;14.60;4.72;;;24.40;62.60;;;;;;5001181;28;20038;-78
2022/01/21 00:17:39;;;;;;;14.82;4.25;;;24.40;62.60;;;;;;4993682;28;20026;-77
2022/01/21 00:31:11;;;;;;;22.65;5.20;;;24.30;62.90;;;;;;4972633;28;20425;-77
2022/01/21 00:33:37;;;;;;;15.23;4.28;;;24.30;63.00;;;;;;5002537;28;20065;-78
2022/01/21 00:36:05;;;;;;;17.77;4.47;;;24.30;63.10;;;;;;4998757;28;20023;-78
2022/01/21 00:38:32;;;;;;;11.30;3.63;;;24.30;63.20;;;;;;4999336;28;20002;-78
2022/01/21 00:41:03;;;;;;;16.30;4.32;;;24.30;63.20;;;;;;5015317;28;20501;-78
2022/01/21 00:43:33;;;;;;;14.07;5.32;;;24.30;63.20;;;;;;4995182;28;20034;-80
2022/01/21 00:46:03;;;;;;;10.18;3.40;;;24.30;63.10;;;;;;5000025;28;20034;-78
2022/01/21 00:48:29;;;;;;;17.73;5.13;;;24.30;63.10;;;;;;5006480;28;20524;-78
2022/01/21 00:50:56;;;;;;;14.10;4.35;;;24.30;62.90;;;;;;4995299;28;20405;-80
2022/01/21 00:53:22;;;;;;;12.43;4.38;;;24.20;62.80;;;;;;5004443;28;20045;-79
2022/01/21 00:55:49;;;;;;;15.10;4.88;;;24.20;62.80;;;;;;4996336;28;20113;-77
2022/01/21 00:58:15;;;;;;;11.20;3.83;;;24.20;62.90;;;;;;4999381;28;20506;-80
2022/01/21 01:00:42;;;;;;;17.67;4.55;;;24.20;62.90;;;;;;4996609;28;20066;-82
2022/01/21 01:03:10;;;;;;;28.23;5.20;;;24.20;63.00;;;;;;5001492;28;20042;-79
2022/01/21 01:05:37;;;;;;;20.95;4.00;;;24.20;62.90;;;;;;4995381;28;20025;-76
2022/01/21 01:08:12;;;;;;;14.70;3.85;;;24.20;62.90;;;;;;4997774;28;20022;-77
2022/01/21 01:21:34;;;;;;;17.10;4.50;;;24.10;63.00;;;;;;4996275;28;20987;-79
2022/01/21 01:29:23;;;;;;;12.63;4.10;;;24.10;63.30;;;;;;4999651;28;20161;-78
2022/01/21 01:31:51;;;;;;;11.07;3.90;;;24.10;63.20;;;;;;5000580;28;20030;-78
2022/01/21 01:34:19;;;;;;;15.02;4.32;;;24.00;63.30;;;;;;5011119;28;20018;-77
2022/01/21 01:36:47;;;;;;;19.02;4.30;;;24.00;63.30;;;;;;4998496;28;20026;-79
2022/01/21 01:39:29;;;;;;;11.00;4.45;;;24.00;63.40;;;;;;4999038;28;20133;-77
2022/01/21 01:42:53;;;;;;;21.15;5.88;;;24.00;63.40;;;;;;5004626;28;20057;-81
2022/01/21 01:50:36;;;;;;;13.33;4.50;;;23.90;63.60;;;;;;5000781;28;20052;-78
2022/01/21 01:53:04;;;;;;;20.75;5.18;;;23.90;63.80;;;;;;4998299;28;20025;-80
2022/01/21 01:55:31;;;;;;;26.13;4.55;;;23.90;63.80;;;;;;5014852;28;20385;-80
2022/01/21 01:57:58;;;;;;;15.73;4.18;;;23.90;64.20;;;;;;5003723;28;20485;-78
2022/01/21 02:00:24;;;;;;;23.00;4.45;;;23.90;64.40;;;;;;5000239;28;20030;-77
2022/01/21 02:02:51;;;;;;;18.00;5.03;;;23.90;64.30;;;;;;4999896;28;20494;-78
2022/01/21 02:05:19;;;;;;;25.20;7.43;;;23.80;64.20;;;;;;5001492;28;20091;-77
2022/01/21 02:07:47;;;;;;;19.05;5.32;;;23.90;64.20;;;;;;5004986;28;20025;-78
2022/01/21 02:10:14;;;;;;;16.55;5.45;;;23.80;64.20;;;;;;4997212;28;20042;-77
2022/01/21 02:12:42;;;;;;;17.48;5.72;;;23.80;64.30;;;;;;5002513;28;20028;-79
2022/01/21 02:15:09;;;;;;;11.63;4.10;;;23.80;64.30;;;;;;5002238;28;20065;-81
2022/01/21 02:22:54;;;;;;;11.80;4.25;;;23.70;64.10;;;;;;5001035;28;20033;-77
2022/01/21 02:25:21;;;;;;;11.82;3.92;;;23.70;64.10;;;;;;5003931;28;20113;-77
2022/01/21 02:27:53;;;;;;;16.55;4.05;;;23.80;64.00;;;;;;5000561;28;20140;-78
2022/01/21 02:30:21;;;;;;;16.83;4.80;;;23.80;64.00;;;;;;4997009;28;20494;-79
2022/01/21 02:32:53;;;;;;;15.52;3.53;;;23.80;64.10;;;;;;4998049;28;20018;-77
2022/01/21 02:35:20;;;;;;;21.73;4.43;;;23.70;64.20;;;;;;5001928;28;20105;-78
2022/01/21 02:37:47;;;;;;;19.30;5.45;;;23.80;64.20;;;;;;4994206;28;20505;-78
2022/01/21 02:40:15;;;;;;;22.75;6.13;;;23.70;64.10;;;;;;5000287;28;20541;-80
2022/01/21 02:42:44;;;;;;;15.80;4.13;;;23.70;64.00;;;;;;4998678;28;20022;-77
2022/01/21 02:45:14;;;;;;;12.65;3.80;;;23.70;64.20;;;;;;5029184;28;20022;-79
2022/01/21 02:47:42;;;;;;;14.60;4.07;;;23.70;64.20;;;;;;5001932;28;20030;-78
2022/01/21 02:50:10;;;;;;;19.13;5.93;;;23.70;64.20;;;;;;4998146;28;20057;-76
2022/01/21 02:52:42;;;;;;;21.20;4.63;;;23.70;64.20;;;;;;4999909;28;20041;-78
2022/01/21 02:55:10;;;;;;;11.68;3.70;;;23.60;64.20;;;;;;5017230;28;20029;-77
2022/01/21 02:57:37;;;;;;;14.90;4.55;;;23.70;64.40;;;;;;5006277;28;20461;-79
2022/01/21 03:00:06;;;;;;;17.17;4.80;;;23.60;64.40;;;;;;5001374;28;20033;-79
2022/01/21 03:02:32;;;;;;;17.90;4.53;;;23.60;64.40;;;;;;4998580;28;20080;-77
2022/01/21 03:05:08;;;;;;;18.35;6.10;;;23.60;64.40;;;;;;4999215;28;20104;-79
2022/01/21 03:07:35;;;;;;;15.60;3.65;;;23.60;64.50;;;;;;4995859;28;20474;-78
2022/01/21 03:10:01;;;;;;;21.45;5.18;;;23.60;64.80;;;;;;5002876;28;20493;-78
2022/01/21 03:12:28;;;;;;;35.33;5.85;;;23.60;65.00;;;;;;4998190;28;20109;-76
2022/01/21 03:14:54;;;;;;;32.33;7.53;;;23.60;65.20;;;;;;4994923;28;20025;-79
2022/01/21 03:17:21;;;;;;;27.65;6.30;;;23.50;65.20;;;;;;5000681;28;20027;-77
2022/01/21 03:20:06;;;;;;;20.20;3.53;;;23.50;64.90;;;;;;5000668;28;20495;-79
2022/01/21 03:22:33;;;;;;;13.10;3.88;;;23.50;64.60;;;;;;5032211;28;20030;-77
2022/01/21 03:24:59;;;;;;;17.98;4.97;;;23.40;64.70;;;;;;4999342;28;20034;-77
2022/01/21 03:27:26;;;;;;;23.88;6.32;;;23.40;64.60;;;;;;4999462;28;20389;-76
2022/01/21 03:29:52;;;;;;;14.15;4.53;;;23.40;64.60;;;;;;5000536;28;20374;-78
2022/01/21 03:32:19;;;;;;;18.15;4.50;;;23.40;64.60;;;;;;4999638;28;20473;-77
2022/01/21 03:34:45;;;;;;;17.20;3.50;;;23.40;64.60;;;;;;5002030;28;20022;-78
2022/01/21 03:37:12;;;;;;;16.73;4.43;;;23.40;64.60;;;;;;5032697;28;20026;-78
2022/01/21 03:39:38;;;;;;;21.15;5.32;;;23.30;64.70;;;;;;4997360;28;20029;-77
2022/01/21 03:42:05;;;;;;;26.98;5.10;;;23.30;64.80;;;;;;4997273;28;20026;-79
2022/01/21 03:44:32;;;;;;;12.82;4.43;;;23.30;64.80;;;;;;5000595;28;20026;-77
2022/01/21 03:46:59;;;;;;;15.25;5.43;;;23.30;64.90;;;;;;4997582;28;20109;-77
2022/01/21 03:49:28;;;;;;;26.20;5.85;;;23.20;64.90;;;;;;5011429;28;20497;-76
2022/01/21 03:51:54;;;;;;;41.67;7.35;;;23.30;65.10;;;;;;5002102;28;20036;-80
2022/01/21 03:54:21;;;;;;;52.83;6.40;;;23.30;65.30;;;;;;4995643;28;20033;-76
2022/01/21 03:56:47;;;;;;;40.05;5.93;;;23.20;65.40;;;;;;5000724;28;20029;-76
2022/01/21 03:59:14;;;;;;;21.85;8.85;;;23.20;65.50;;;;;;4997370;28;20033;-76
2022/01/21 04:01:40;;;;;;;18.92;4.80;;;23.20;65.40;;;;;;5001833;28;20026;-75
2022/01/21 04:04:06;;;;;;;26.00;7.32;;;23.20;66.10;;;;;;4999529;28;20087;-79
2022/01/21 04:06:33;;;;;;;76.95;9.30;;;23.10;66.00;;;;;;4997749;28;20477;-78
2022/01/21 04:08:59;;;;;;;103.50;25.27;;;22.90;66.60;;;;;;4998105;28;20069;-75
2022/01/21 04:11:26;;;;;;;95.63;27.13;;;22.70;67.50;;;;;;4994208;28;20031;-80
2022/01/21 04:13:54;;;;;;;60.58;19.23;;;22.70;68.20;;;;;;4996742;28;20022;-77
2022/01/21 04:16:21;;;;;;;49.53;12.55;;;22.80;67.70;;;;;;4998311;28;20026;-78
2022/01/21 04:18:47;;;;;;;33.30;9.73;;;22.80;67.50;;;;;;5000161;28;20060;-78
2022/01/21 04:21:16;;;;;;;30.02;5.97;;;22.80;67.20;;;;;;4996512;28;20034;-73
2022/01/21 04:23:43;;;;;;;47.50;7.13;;;22.90;67.30;;;;;;4998537;28;20015;-75
2022/01/21 04:26:09;;;;;;;45.25;8.80;;;22.90;67.30;;;;;;4996087;28;20117;-78
2022/01/21 04:28:40;;;;;;;37.47;8.10;;;22.90;67.40;;;;;;4996090;28;20026;-75
2022/01/21 04:31:06;;;;;;;32.80;9.38;;;23.00;67.40;;;;;;4999142;28;20043;-75
2022/01/21 04:33:33;;;;;;;33.28;11.88;;;23.00;67.50;;;;;;4998974;28;20474;-74
2022/01/21 04:36:01;;;;;;;39.08;11.63;;;23.00;67.50;;;;;;4998109;28;20427;-76
2022/01/21 04:38:27;;;;;;;52.75;9.48;;;23.00;67.30;;;;;;4994998;28;20026;-73
2022/01/21 04:41:04;;;;;;;38.22;8.95;;;23.00;67.10;;;;;;4997516;28;20105;-72
2022/01/21 04:49:08;;;;;;;31.83;7.68;;;23.00;67.10;;;;;;4996803;28;20041;-73
2022/01/21 04:51:48;;;;;;;23.33;5.00;;;23.00;67.50;;;;;;4994319;28;20046;-75
2022/01/21 04:54:14;;;;;;;21.65;6.30;;;23.00;67.50;;;;;;4992356;28;20073;-78
2022/01/21 04:56:41;;;;;;;23.85;6.20;;;23.00;67.40;;;;;;4997938;28;20022;-77
2022/01/21 04:59:07;;;;;;;43.30;6.82;;;23.00;67.30;;;;;;4996563;28;20037;-79
2022/01/21 05:01:34;;;;;;;30.17;7.13;;;23.00;67.20;;;;;;5000484;28;20068;-76
2022/01/21 05:04:00;;;;;;;29.13;7.25;;;23.00;67.30;;;;;;5009628;28;20050;-76
2022/01/21 05:06:27;;;;;;;23.42;5.40;;;23.00;67.30;;;;;;4998456;28;20117;-78
2022/01/21 05:08:55;;;;;;;29.52;6.32;;;23.00;67.40;;;;;;4993365;28;20021;-76
2022/01/21 05:11:22;;;;;;;38.30;7.43;;;23.00;67.40;;;;;;4999657;28;20022;-77
2022/01/21 05:13:58;;;;;;;97.97;10.77;;;23.00;67.40;;;;;;4999480;28;20023;-77
2022/01/21 05:18:58;;;;;;;38.80;7.13;;;23.00;67.70;;;;;;4996535;28;20467;-78
2022/01/21 05:21:25;;;;;;;27.92;5.90;;;23.00;67.50;;;;;;4998084;28;20030;-76
2022/01/21 05:23:51;;;;;;;26.60;5.88;;;23.00;67.60;;;;;;5003577;28;20778;-77
2022/01/21 05:26:18;;;;;;;28.33;7.00;;;23.00;67.50;;;;;;4998313;28;20026;-76
2022/01/21 05:28:44;;;;;;;21.15;5.78;;;23.00;67.50;;;;;;4996078;28;20072;-79
2022/01/21 05:31:11;;;;;;;27.67;5.35;;;23.10;67.50;;;;;;4999457;28;20038;-78
2022/01/21 05:33:37;;;;;;;35.90;6.15;;;23.10;67.50;;;;;;4998510;28;20033;-76
2022/01/21 05:36:04;;;;;;;24.30;6.38;;;23.10;67.60;;;;;;4995520;28;20022;-77
2022/01/21 05:38:31;;;;;;;30.90;5.32;;;23.10;67.50;;;;;;5002581;28;20995;-75
2022/01/21 05:40:57;;;;;;;15.40;4.88;;;23.10;67.40;;;;;;4999403;28;20030;-76
2022/01/21 05:43:24;;;;;;;13.18;5.97;;;23.10;67.30;;;;;;4998292;28;20401;-77
2022/01/21 05:48:35;;;;;;;20.30;5.50;;;23.10;67.70;;;;;;4994050;28;20077;-77
2022/01/21 05:51:01;;;;;;;17.77;5.68;;;23.20;66.80;;;;;;4999966;28;20045;-77
2022/01/21 05:53:28;;;;;;;16.65;4.38;;;23.10;66.50;;;;;;4998607;28;20022;-78
2022/01/21 05:56:00;;;;;;;18.63;6.07;;;23.20;66.30;;;;;;5000012;28;20034;-76
2022/01/21 05:58:27;;;;;;;21.90;6.05;;;23.20;66.20;;;;;;4999546;28;20080;-75
2022/01/21 06:00:53;;;;;;;17.10;5.15;;;23.20;66.20;;;;;;5002264;28;20022;-76
2022/01/21 06:03:20;;;;;;;17.92;4.82;;;23.30;66.10;;;;;;4993159;28;20056;-76
2022/01/21 06:05:46;;;;;;;19.48;5.57;;;23.30;65.90;;;;;;5000680;28;20041;-77
2022/01/21 06:08:13;;;;;;;15.10;4.43;;;23.30;65.50;;;;;;4999004;28;20021;-77
2022/01/21 06:10:39;;;;;;;20.33;5.95;;;23.40;65.20;;;;;;4999115;28;20509;-75
2022/01/21 06:13:06;;;;;;;15.05;4.45;;;23.40;64.80;;;;;;4997271;28;20034;-75
2022/01/21 06:15:33;;;;;;;17.02;4.65;;;23.40;64.60;;;;;;5004094;28;20053;-74
2022/01/21 06:17:59;;;;;;;13.07;4.65;;;23.40;64.30;;;;;;5029197;28;20026;-74
2022/01/21 06:20:25;;;;;;;10.18;4.55;;;23.50;64.20;;;;;;4994638;28;20786;-75
2022/01/21 06:22:52;;;;;;;23.77;5.90;;;23.50;64.10;;;;;;5003833;28;20076;-73
2022/01/21 06:25:19;;;;;;;16.38;4.90;;;23.50;64.00;;;;;;4998442;28;20022;-76
2022/01/21 06:27:45;;;;;;;16.98;4.60;;;23.50;63.70;;;;;;4998658;28;20026;-77
2022/01/21 06:30:12;;;;;;;14.68;5.53;;;23.60;63.50;;;;;;5004262;28;20034;-75
2022/01/21 06:32:39;;;;;;;23.83;5.18;;;23.60;63.20;;;;;;5033028;28;20019;-76
2022/01/21 06:35:06;;;;;;;22.42;5.15;;;23.60;63.10;;;;;;5000228;28;20021;-77
2022/01/21 06:37:33;;;;;;;15.82;4.18;;;23.70;63.10;;;;;;5000539;28;20072;-76
2022/01/21 06:39:59;;;;;;;25.63;5.93;;;23.70;62.70;;;;;;4999356;28;20045;-76
2022/01/21 06:42:28;;;;;;;11.07;3.90;;;23.80;62.50;;;;;;5000406;28;20018;-75
2022/01/21 06:44:54;;;;;;;20.05;5.30;;;23.80;62.30;;;;;;4999534;28;20023;-76
2022/01/21 06:47:21;;;;;;;13.75;4.35;;;23.80;62.20;;;;;;5002985;28;20112;-78
2022/01/21 06:49:48;;;;;;;20.85;4.85;;;23.90;62.10;;;;;;5017612;28;20061;-79
2022/01/21 06:52:14;;;;;;;20.42;4.45;;;23.90;61.90;;;;;;5001390;28;20039;-77
2022/01/21 06:54:41;;;;;;;16.25;4.65;;;24.00;61.40;;;;;;5034523;28;20028;-75
2022/01/21 06:57:08;;;;;;;85.10;8.82;;;24.00;61.30;;;;;;5000584;28;20068;-78
2022/01/21 06:59:34;;;;;;;33.28;5.70;;;24.00;61.40;;;;;;4998018;28;20485;-78
2022/01/21 07:02:01;;;;;;;25.38;6.22;;;24.00;61.30;;;;;;5016045;28;20069;-75
2022/01/21 07:04:27;;;;;;;24.08;5.28;;;24.10;61.10;;;;;;4999394;28;20477;-73
2022/01/21 07:06:57;;;;;;;92.07;10.05;;;24.10;60.80;;;;;;5004619;28;20030;-75
2022/01/21 07:09:25;;;;;;;79.97;9.93;;;24.20;60.80;;;;;;4997865;28;20042;-75
2022/01/21 07:11:52;;;;;;;60.90;8.15;;;24.20;61.80;;;;;;4999486;28;20026;-77
2022/01/21 07:14:19;;;;;;;50.60;9.13;;;24.20;60.80;;;;;;5002827;28;20022;-74
2022/01/21 07:16:46;;;;;;;71.55;10.20;;;24.30;60.60;;;;;;4998799;28;20030;-78
2022/01/21 07:19:13;;;;;;;42.90;6.97;;;24.30;60.20;;;;;;5001395;28;20104;-73
2022/01/21 07:21:40;;;;;;;71.47;9.30;;;24.40;60.00;;;;;;4999112;28;20038;-74
2022/01/21 07:24:07;;;;;;;78.22;10.05;;;24.40;59.70;;;;;;5007439;28;20112;-75
2022/01/21 07:26:34;;;;;;;58.70;8.80;;;24.40;59.70;;;;;;5001471;28;20026;-73
2022/01/21 07:29:01;;;;;;;50.22;7.18;;;24.50;59.30;;;;;;5002213;28;20052;-76
2022/01/21 07:31:28;;;;;;;48.92;8.00;;;24.60;58.80;;;;;;4997215;28;20022;-73
2022/01/21 07:33:55;;;;;;;49.78;7.38;;;24.60;58.20;;;;;;5000426;28;20023;-77
2022/01/21 07:36:21;;;;;;;46.78;6.25;;;24.60;57.80;;;;;;4998070;28;20026;-77
2022/01/21 07:38:48;;;;;;;41.92;7.25;;;24.60;57.90;;;;;;5000401;28;20108;-77
2022/01/21 07:41:14;;;;;;;24.05;4.70;;;24.70;58.10;;;;;;4999223;28;20026;-78
2022/01/21 07:43:41;;;;;;;26.75;5.75;;;24.80;57.80;;;;;;4998168;28;20034;-74
2022/01/21 07:46:07;;;;;;;33.40;4.93;;;24.80;57.30;;;;;;5006737;28;20385;-75
2022/01/21 07:48:34;;;;;;;27.15;5.30;;;24.80;57.40;;;;;;4995559;28;20041;-75
2022/01/21 07:51:00;;;;;;;21.60;5.50;;;24.80;57.50;;;;;;4998135;28;20061;-77
2022/01/21 07:53:26;;;;;;;18.35;4.28;;;24.90;58.00;;;;;;5003568;28;20014;-76
2022/01/21 07:55:53;;;;;;;22.05;6.38;;;25.00;57.40;;;;;;4999862;28;20029;-74
2022/01/21 07:58:20;;;;;;;15.60;4.22;;;25.00;57.00;;;;;;5002291;28;22608;-75
2022/01/21 08:00:48;;;;;;;16.48;4.65;;;25.10;56.90;;;;;;5000042;28;20358;-75
2022/01/21 08:03:15;;;;;;;14.70;4.38;;;25.10;56.90;;;;;;5015675;28;20050;-77
2022/01/21 08:05:43;;;;;;;13.85;4.47;;;25.20;56.70;;;;;;5000535;28;20034;-74
2022/01/21 08:08:11;;;;;;;13.40;3.90;;;25.20;56.80;;;;;;5001525;28;20508;-76
2022/01/21 08:10:38;;;;;;;15.77;5.50;;;25.30;56.50;;;;;;5032830;28;20387;-74
2022/01/21 08:13:04;;;;;;;12.45;4.25;;;25.30;56.30;;;;;;4999476;28;20129;-78
2022/01/21 08:15:31;;;;;;;21.70;5.78;;;25.40;56.30;;;;;;4982463;28;20022;-74
2022/01/21 08:17:58;;;;;;;28.25;6.32;;;25.50;56.20;;;;;;5026185;28;20362;-74
2022/01/21 08:20:24;;;;;;;21.05;4.32;;;25.50;56.20;;;;;;5002198;28;20100;-77
2022/01/21 08:22:51;;;;;;;19.88;4.75;;;25.50;56.00;;;;;;5015191;28;20021;-75
2022/01/21 08:25:17;;;;;;;12.10;4.07;;;25.60;55.30;;;;;;4997743;28;20092;-74
2022/01/21 08:27:44;;;;;;;25.13;4.68;;;25.70;54.20;;;;;;5000714;28;20386;-76
2022/01/21 08:30:11;;;;;;;11.52;3.55;;;25.70;54.00;;;;;;5003713;28;20109;-79
2022/01/21 08:32:38;;;;;;;14.50;5.38;;;25.80;53.50;;;;;;4996415;28;20018;-75
2022/01/21 08:35:07;;;;;;;16.30;5.22;;;25.90;53.20;;;;;;4998939;28;20048;-77
2022/01/21 08:37:34;;;;;;;22.15;4.10;;;25.90;53.20;;;;;;4996761;28;20647;-73
2022/01/21 08:40:01;;;;;;;16.83;4.65;;;26.00;53.10;;;;;;4999114;28;20022;-77
2022/01/21 08:42:27;;;;;;;13.95;4.68;;;26.00;52.90;;;;;;5001658;28;20037;-73
2022/01/21 08:44:53;;;;;;;11.57;3.72;;;26.10;52.80;;;;;;4994660;28;20062;-75
2022/01/21 08:47:21;;;;;;;28.25;6.38;;;26.20;52.40;;;;;;5003559;28;20757;-74
2022/01/21 08:49:49;;;;;;;15.10;4.65;;;26.20;52.00;;;;;;4995656;28;20070;-75
2022/01/21 08:52:21;;;;;;;15.90;4.53;;;26.30;51.70;;;;;;4994952;28;20029;-75
2022/01/21 08:54:48;;;;;;;18.35;4.63;;;26.40;52.00;;;;;;5001217;28;20022;-75
2022/01/21 08:57:16;;;;;;;14.68;4.05;;;26.40;51.80;;;;;;5002866;28;20022;-79
2022/01/21 08:59:43;;;;;;;16.73;4.75;;;26.50;51.40;;;;;;4997530;28;20084;-74
2022/01/21 09:02:10;;;;;;;20.30;5.15;;;26.50;51.40;;;;;;5027864;28;20038;-76
2022/01/21 09:04:36;;;;;;;22.45;4.32;;;26.60;51.80;;;;;;4999529;28;20052;-75
2022/01/21 09:07:04;;;;;;;15.60;4.68;;;26.60;51.60;;;;;;4998302;28;20038;-76
2022/01/21 09:09:30;;;;;;;16.23;5.35;;;26.70;51.60;;;;;;4997294;28;20038;-78
2022/01/21 09:12:00;;;;;;;15.32;4.47;;;26.80;51.40;;;;;;5002438;28;20031;-75
2022/01/21 09:14:27;;;;;;;15.00;4.68;;;26.90;51.30;;;;;;4997690;28;20136;-78
2022/01/21 09:16:56;;;;;;;15.75;4.72;;;26.90;51.40;;;;;;4995046;28;20010;-76
2022/01/21 09:19:24;;;;;;;17.17;4.82;;;26.90;51.50;;;;;;4999488;28;20065;-74
2022/01/21 09:21:51;;;;;;;23.88;5.70;;;27.00;51.60;;;;;;5001768;28;20480;-74
2022/01/21 09:24:19;;;;;;;16.27;4.57;;;27.10;51.80;;;;;;4995715;28;20025;-77
2022/01/21 09:26:46;;;;;;;20.52;5.95;;;27.20;51.90;;;;;;4995968;28;20018;-78
2022/01/21 09:29:12;;;;;;;26.02;5.32;;;27.20;51.90;;;;;;4998623;28;20359;-76
2022/01/21 09:31:39;;;;;;;22.05;5.63;;;27.20;52.00;;;;;;4998843;28;20026;-75
2022/01/21 09:34:46;;;;;;;15.82;6.00;;;27.30;52.00;;;;;;4997835;28;20236;-76
2022/01/21 09:37:52;;;;;;;18.98;4.30;;;27.40;52.20;;;;;;4999489;28;20030;-77
2022/01/21 09:40:58;;;;;;;11.65;4.13;;;27.40;51.90;;;;;;4994406;28;20040;-78
2022/01/21 09:44:06;;;;;;;15.75;5.18;;;27.50;51.50;;;;;;5002447;28;20101;-78
2022/01/21 09:47:16;;;;;;;19.35;4.43;;;27.50;50.90;;;;;;4995257;28;20113;-78
2022/01/21 09:50:22;;;;;;;12.25;3.40;;;27.60;50.00;;;;;;4997888;28;20031;-74
2022/01/21 09:53:28;;;;;;;12.93;4.00;;;27.60;49.80;;;;;;5013978;28;20088;-77
2022/01/21 09:56:34;;;;;;;14.10;3.72;;;27.70;49.20;;;;;;4997352;28;20046;-77
2022/01/21 09:59:40;;;;;;;9.73;2.80;;;27.80;48.60;;;;;;4995586;28;20956;-74
2022/01/21 10:02:46;;;;;;;13.07;3.08;;;27.80;48.50;;;;;;4993633;28;20083;-77
2022/01/21 10:05:52;;;;;;;14.93;3.90;;;27.90;48.50;;;;;;5003968;28;20022;-78
2022/01/21 10:08:58;;;;;;;10.07;3.67;;;27.90;48.60;;;;;;5015440;28;20022;-78
2022/01/21 10:12:04;;;;;;;11.57;2.75;;;28.00;48.20;;;;;;4996308;28;20088;-76
2022/01/21 10:15:11;;;;;;;9.00;3.08;;;28.10;48.60;;;;;;5000180;28;20033;-77
2022/01/21 10:18:17;;;;;;;9.13;3.00;;;28.10;47.90;;;;;;5003612;28;20104;-74
2022/01/21 10:21:24;;;;;;;8.38;3.08;;;28.20;47.90;;;;;;4998448;28;20465;-78
2022/01/21 10:24:30;;;;;;;8.32;3.03;;;28.20;47.80;;;;;;5002899;28;20478;-75
2022/01/21 10:27:46;;;;;;;10.93;3.75;;;28.30;48.20;;;;;;5016714;28;20054;-75
2022/01/21 10:31:04;;;;;;;12.93;3.42;;;28.30;48.40;;;;;;5000957;28;20049;-79
2022/01/21 10:34:11;;;;;;;11.38;3.53;;;28.40;48.00;;;;;;5022088;28;20099;-77
2022/01/21 10:37:17;;;;;;;13.50;3.80;;;28.50;48.00;;;;;;5004243;28;20108;-76
2022/01/21 10:39:59;;;;;;;19.70;4.70;;;28.60;47.20;;;;;;5017123;28;20034;-74
2022/01/21 10:43:05;;;;;;;24.33;4.55;;;28.60;47.90;;;;;;4997661;28;20030;-77
2022/01/21 10:46:13;;;;;;;26.65;4.55;;;28.70;48.10;;;;;;4994014;28;20030;-74
2022/01/21 10:49:35;;;;;;;22.73;4.13;;;28.80;48.40;;;;;;4998123;28;20193;-78
2022/01/21 10:52:41;;;;;;;22.33;4.15;;;28.90;48.50;;;;;;4994147;28;20038;-78
2022/01/21 10:56:03;;;;;;;13.05;3.50;;;28.90;49.10;;;;;;4996964;28;20109;-79
2022/01/21 10:59:12;;;;;;;15.77;4.35;;;29.00;48.60;;;;;;4975553;28;20022;-77
2022/01/21 11:02:18;;;;;;;21.38;3.35;;;29.00;48.90;;;;;;4998534;28;20022;-78
2022/01/21 11:05:28;;;;;;;33.70;5.03;;;29.10;48.70;;;;;;5002899;28;20138;-77
2022/01/21 11:08:34;;;;;;;17.67;5.18;;;29.20;48.70;;;;;;4998468;28;20021;-78
2022/01/21 11:11:43;;;;;;;9.30;3.28;;;29.20;48.50;;;;;;5003437;28;20108;-79
2022/01/21 11:14:49;;;;;;;11.45;2.92;;;29.30;47.90;;;;;;4999107;28;20067;-78
2022/01/21 11:17:57;;;;;;;7.60;3.22;;;29.30;47.40;;;;;;5001041;28;20410;-78
2022/01/21 11:21:09;;;;;;;13.57;4.53;;;29.40;47.80;;;;;;4999122;28;20505;-78
2022/01/21 11:24:15;;;;;;;8.98;2.90;;;29.50;47.90;;;;;;4999213;28;20058;-78
2022/01/21 11:27:24;;;;;;;10.30;3.15;;;29.50;46.80;;;;;;5000327;28;20034;-79
2022/01/21 11:30:30;;;;;;;9.70;3.10;;;29.60;46.90;;;;;;5014205;28;20085;-78
2022/01/21 11:33:36;;;;;;;7.15;3.25;;;29.70;46.70;;;;;;4997486;28;20029;-77
2022/01/21 11:36:42;;;;;;;9.60;4.13;;;29.70;46.60;;;;;;5001390;28;20019;-79
2022/01/21 11:39:48;;;;;;;12.15;4.38;;;29.70;46.70;;;;;;5002306;28;20026;-79
2022/01/21 11:42:57;;;;;;;13.95;3.22;;;29.70;47.30;;;;;;4997739;28;20030;-77
2022/01/21 11:46:18;;;;;;;14.23;3.88;;;29.80;47.50;;;;;;4996746;28;20033;-79
2022/01/21 11:49:25;;;;;;;17.42;4.15;;;29.80;47.70;;;;;;4998266;28;20544;-78
2022/01/21 11:52:34;;;;;;;29.48;5.70;;;29.90;47.80;;;;;;5003220;28;20072;-79
2022/01/21 11:55:47;;;;;;;19.92;5.72;;;29.90;48.10;;;;;;5000238;28;20382;-78
2022/01/21 11:58:53;;;;;;;17.17;4.88;;;29.90;48.30;;;;;;4996417;28;20030;-78
2022/01/21 12:02:11;;;;;;;24.80;5.75;;;30.00;48.70;;;;;;4998943;28;20026;-78
2022/01/21 12:05:01;;;;;;;12.50;5.50;;;30.00;49.40;;;;;;4996957;28;20143;-77
2022/01/21 12:07:44;;;;;;;36.00;5.28;;;30.00;48.70;;;;;;4998174;28;20022;-78
2022/01/21 12:10:50;;;;;;;24.50;5.95;;;30.10;48.60;;;;;;5002321;28;20421;-78
2022/01/21 12:13:56;;;;;;;24.25;5.72;;;30.10;48.90;;;;;;4996641;28;20026;-78
2022/01/21 12:17:22;;;;;;;10.23;4.07;;;30.10;48.60;;;;;;5004027;28;20025;-77
2022/01/21 12:20:28;;;;;;;14.38;5.32;;;30.20;48.80;;;;;;4998006;28;20030;-79
2022/01/21 12:23:43;;;;;;;15.45;4.35;;;30.10;48.80;;;;;;4997275;28;20026;-77
2022/01/21 12:26:16;;;;;;;14.23;4.72;;;30.20;48.80;;;;;;4995031;28;20088;-78
2022/01/21 12:28:58;;;;;;;13.88;4.00;;;30.20;48.90;;;;;;4999722;28;20037;-77
2022/01/21 12:31:41;;;;;;;19.02;4.75;;;30.20;49.50;;;;;;5015758;28;20027;-78
2022/01/21 12:34:47;;;;;;;16.85;4.55;;;30.20;48.50;;;;;;4996113;28;20033;-78
2022/01/21 12:38:04;;;;;;;20.33;5.07;;;30.30;49.20;;;;;;5000471;28;20540;-78
2022/01/21 12:41:15;;;;;;;10.30;5.10;;;30.30;48.30;;;;;;4999790;28;20433;-77
2022/01/21 12:44:12;;;;;;;14.93;5.18;;;30.30;48.10;;;;;;5003948;28;20395;-77
2022/01/21 12:47:18;;;;;;;27.92;4.53;;;30.40;48.30;;;;;;4997820;28;20385;-78
2022/01/21 12:50:41;;;;;;;32.20;6.25;;;30.50;48.40;;;;;;4997379;28;20053;-78
2022/01/21 12:57:20;;;;;;;22.17;5.35;;;30.60;48.40;;;;;;4998106;28;20037;-77
2022/01/21 13:00:26;;;;;;;21.20;4.82;;;30.70;48.00;;;;;;5009739;28;20509;-79
2022/01/21 13:03:35;;;;;;;17.13;4.85;;;30.70;48.00;;;;;;4999638;28;20128;-77
2022/01/21 13:06:20;;;;;;;16.92;6.28;;;30.80;48.00;;;;;;4986155;28;20045;-77
2022/01/21 13:09:26;;;;;;;13.88;5.40;;;30.80;47.80;;;;;;4997600;28;20052;-78
2022/01/21 13:12:35;;;;;;;15.90;5.85;;;30.90;47.40;;;;;;4984991;28;20034;-74
2022/01/21 13:15:41;;;;;;;13.88;5.57;;;30.90;47.30;;;;;;4998496;28;20023;-75
2022/01/21 13:18:50;;;;;;;13.90;5.25;;;30.90;47.80;;;;;;4996285;28;20946;-76
2022/01/21 13:21:56;;;;;;;20.73;5.93;;;30.90;48.10;;;;;;4997206;28;20026;-78
2022/01/21 13:25:15;;;;;;;23.08;6.00;;;30.90;48.30;;;;;;4995745;28;20044;-76
2022/01/21 13:28:24;;;;;;;19.45;6.72;;;30.90;48.70;;;;;;5002569;28;20112;-79
2022/01/21 13:31:30;;;;;;;20.25;5.90;;;30.90;49.20;;;;;;5000250;28;20505;-79
2022/01/21 13:34:52;;;;;;;22.70;5.28;;;30.80;48.70;;;;;;4994494;28;20022;-76
2022/01/21 13:37:58;;;;;;;18.08;6.10;;;30.80;49.00;;;;;;4993145;28;20021;-75
2022/01/21 13:41:11;;;;;;;21.38;7.20;;;30.80;49.10;;;;;;4995913;28;20029;-76
2022/01/21 13:44:17;;;;;;;18.50;6.88;;;30.80;49.00;;;;;;4996570;28;20473;-76
2022/01/21 13:47:23;;;;;;;24.55;7.57;;;30.80;49.20;;;;;;4995658;28;20034;-78
2022/01/21 13:50:30;;;;;;;22.92;7.18;;;30.90;49.40;;;;;;5001206;28;20045;-74
2022/01/21 13:53:47;;;;;;;26.35;7.35;;;30.90;49.20;;;;;;5000239;28;20452;-76
2022/01/21 13:56:53;;;;;;;22.90;9.30;;;30.90;49.30;;;;;;5012895;28;20116;-78
2022/01/21 13:59:59;;;;;;;21.55;8.20;;;30.90;49.60;;;;;;5008006;28;20070;-76
2022/01/21 14:03:05;;;;;;;20.75;7.10;;;30.90;49.90;;;;;;4997951;28;20069;-76
2022/01/21 14:06:25;;;;;;;23.85;7.25;;;30.90;50.20;;;;;;4997280;28;20018;-75
2022/01/21 14:09:31;;;;;;;17.65;6.18;;;30.90;50.00;;;;;;4995789;28;20096;-75
2022/01/21 14:12:37;;;;;;;28.38;7.78;;;30.90;49.90;;;;;;4996935;28;20026;-77
2022/01/21 14:15:43;;;;;;;44.05;8.05;;;30.90;49.70;;;;;;4994995;28;20564;-75
2022/01/21 14:18:49;;;;;;;33.47;7.22;;;30.90;49.80;;;;;;4995583;28;20033;-78
2022/01/21 14:21:55;;;;;;;27.70;6.28;;;30.90;49.20;;;;;;4997114;28;20076;-75
2022/01/21 14:25:02;;;;;;;21.75;6.10;;;30.90;49.10;;;;;;4998932;28;20026;-75
2022/01/21 14:28:09;;;;;;;19.88;6.43;;;30.90;49.50;;;;;;4993986;28;20034;-76
2022/01/21 14:31:15;;;;;;;20.63;6.35;;;30.90;49.80;;;;;;4995523;28;20099;-75